香港 の空港の天気 - METARとTAF

香港国際空港 ( VHHH / HKG ) - 香港 赤リョウ角
飛行場実況気象(Metar)
観測時間04/27 12:30 HKT (04/27 04:30 UTC)
風向・風速北北西 3m/s
視程5000m
天気現象
少しの雲 雲底高度 700m
全天の4割程度の雲 雲底高度 910m
気温27℃
湿度70%
気圧1015hPa
METARVHHH 270430Z 33006KT 5000 FEW023 SCT030 27/21 Q1015 TEMPO 3500 BR HZ
過去の天気等 Google飛行場航空写真 Wunderground天気予報

過去48時間のMETAR

飛行場予報(TAF)
発表時間: 4/27 07:00 HKT (4/26 23:00 UTC)
予報対象時間: 27日8時 HKT ~ 28日14時 HKT
風向・風速不定 3m/s
視程7,000m
少しの雲 雲底高度 610m
全天の4割程度の雲 雲底高度 1,220m
27日8時 HKT ~ 27日14時 HKT に一時的に
視程3,500m
天気現象もや
27日11時 HKT ~ 27日17時 HKT に一時的に
風向・風速西 5m/s
27日14時 HKT ~ 27日20時 HKT に一時的に
視程2,500m
天気現象もや 雨
28日5時 HKT ~ 28日7時 HKT に徐々に
風向・風速東 5m/s
TAF VHHH 262300Z 2700/2806 VRB05KT 7000 FEW020 SCT040 TX26/2706Z TX27/2806Z TN24/2723Z
TEMPO 2700/2706 3500 BR
TEMPO 2703/2709 28010KT
TEMPO 2706/2712 2500 BR RA
BECMG 2721/2723 08010KT